createdAt,value
2018-12-15T00:00:51.260Z,16.97
2018-12-15T00:02:53.820Z,17.73
2018-12-15T00:04:56.394Z,16.43
2018-12-15T00:06:59.088Z,16.93
2018-12-15T00:09:01.644Z,16.37
2018-12-15T00:11:04.308Z,16.97
2018-12-15T00:13:06.973Z,17.27
2018-12-15T00:15:09.828Z,16.77
2018-12-15T00:17:12.577Z,18.27
2018-12-15T00:19:15.207Z,16.37
2018-12-15T00:21:17.800Z,17.80
2018-12-15T00:23:20.390Z,17.60
2018-12-15T00:25:23.010Z,18.07
2018-12-15T00:27:25.654Z,16.93
2018-12-15T00:29:28.221Z,17.67
2018-12-15T00:31:30.743Z,18.17
2018-12-15T00:33:33.333Z,16.47
2018-12-15T00:35:35.872Z,18.27
2018-12-15T00:37:38.556Z,17.80
2018-12-15T00:39:41.103Z,17.60
2018-12-15T00:41:43.631Z,17.93
2018-12-15T00:43:46.189Z,17.00
2018-12-15T00:45:48.758Z,17.77
2018-12-15T00:47:51.471Z,18.80
2018-12-15T00:49:54.050Z,17.77
2018-12-15T00:51:56.622Z,17.53
2018-12-15T00:53:59.269Z,17.57
2018-12-15T00:56:01.791Z,18.07
2018-12-15T00:58:04.341Z,17.53
2018-12-15T01:00:07.103Z,18.17
2018-12-15T01:02:09.661Z,17.70
2018-12-15T01:04:12.183Z,18.07
2018-12-15T01:06:14.758Z,18.10
2018-12-15T01:08:17.467Z,18.03
2018-12-15T01:10:20.294Z,18.87
2018-12-15T01:12:22.892Z,17.80
2018-12-15T01:14:25.465Z,16.73
2018-12-15T01:16:28.086Z,18.53
2018-12-15T01:18:30.621Z,18.03
2018-12-15T01:20:33.228Z,17.90
2018-12-15T01:22:35.787Z,18.37
2018-12-15T01:24:38.367Z,19.27
2018-12-15T01:26:40.961Z,18.13
2018-12-15T01:28:43.479Z,19.23
2018-12-15T01:30:46.129Z,17.80
2018-12-15T01:32:48.635Z,18.43
2018-12-15T01:34:51.209Z,18.20
2018-12-15T01:36:53.805Z,19.33
2018-12-15T01:38:56.402Z,18.10
2018-12-15T01:40:59.068Z,18.67
2018-12-15T01:43:01.662Z,19.17
2018-12-15T01:45:05.376Z,19.10
2018-12-15T01:47:07.923Z,17.87
2018-12-15T01:49:10.454Z,17.93
2018-12-15T01:51:12.990Z,18.47
2018-12-15T01:53:15.578Z,17.27
2018-12-15T01:55:18.120Z,18.57
2018-12-15T01:57:20.833Z,18.80
2018-12-15T01:59:23.366Z,18.67
2018-12-15T02:01:25.898Z,18.33
2018-12-15T02:03:28.421Z,18.73
2018-12-15T02:05:31.003Z,18.43
2018-12-15T02:07:33.543Z,18.07
2018-12-15T02:09:36.088Z,18.90
2018-12-15T02:11:38.628Z,18.40
2018-12-15T02:13:41.251Z,19.23
2018-12-15T02:15:43.946Z,18.80
2018-12-15T02:17:46.485Z,18.73
2018-12-15T02:19:49.129Z,17.77
2018-12-15T02:21:51.716Z,18.87
2018-12-15T02:23:54.262Z,18.50
2018-12-15T02:25:56.834Z,18.30
2018-12-15T02:27:59.453Z,17.53
2018-12-15T02:30:02.137Z,18.67
2018-12-15T02:32:04.692Z,19.00
2018-12-15T02:34:07.239Z,19.23
2018-12-15T02:36:09.791Z,18.63
2018-12-15T02:38:12.311Z,19.37
2018-12-15T02:40:14.894Z,19.57
2018-12-15T02:42:17.497Z,19.50
2018-12-15T02:44:20.046Z,18.70
2018-12-15T02:46:22.595Z,18.93
2018-12-15T02:48:25.114Z,20.10
2018-12-15T02:50:27.651Z,19.73
2018-12-15T02:52:30.177Z,18.23
2018-12-15T02:54:32.765Z,18.87
2018-12-15T02:56:35.382Z,19.37
2018-12-15T02:58:37.988Z,19.33
2018-12-15T03:00:40.718Z,19.57
2018-12-15T03:02:43.348Z,19.70
2018-12-15T03:04:45.975Z,18.77
2018-12-15T03:06:48.611Z,19.70
2018-12-15T03:08:51.278Z,19.80
2018-12-15T03:10:53.793Z,20.27
2018-12-15T03:12:56.370Z,20.40
2018-12-15T03:14:58.987Z,20.27
2018-12-15T03:17:04.874Z,20.77
2018-12-15T03:19:11.614Z,18.90
2018-12-15T03:21:14.177Z,19.93
2018-12-15T03:23:16.988Z,20.77
2018-12-15T03:25:19.662Z,20.67
2018-12-15T03:27:22.306Z,20.67
2018-12-15T03:29:24.881Z,20.00
2018-12-15T03:31:27.431Z,19.90
2018-12-15T03:33:30.126Z,20.13
2018-12-15T03:35:32.658Z,20.30
2018-12-15T03:37:35.176Z,21.10
2018-12-15T03:39:37.769Z,20.87
2018-12-15T03:41:40.473Z,21.00
2018-12-15T03:43:43.007Z,21.80
2018-12-15T03:45:45.692Z,21.67
2018-12-15T03:47:48.310Z,19.77
2018-12-15T03:49:50.885Z,21.33
2018-12-15T03:51:53.414Z,21.33
2018-12-15T03:53:55.941Z,21.90
2018-12-15T03:55:58.554Z,21.83
2018-12-15T03:58:01.188Z,22.60
2018-12-15T04:00:04.308Z,21.47
2018-12-15T04:02:07.430Z,21.70
2018-12-15T04:04:09.952Z,21.30
2018-12-15T04:06:12.525Z,21.40
2018-12-15T04:08:15.070Z,21.37
2018-12-15T04:10:17.682Z,21.63
2018-12-15T04:12:20.289Z,22.13
2018-12-15T04:14:22.966Z,21.23
2018-12-15T04:16:25.680Z,21.53
2018-12-15T04:18:28.191Z,21.27
2018-12-15T04:20:30.805Z,21.67
2018-12-15T04:22:33.392Z,21.33
2018-12-15T04:24:35.977Z,21.10
2018-12-15T04:26:38.574Z,20.57
2018-12-15T04:28:41.114Z,21.80
2018-12-15T04:30:43.926Z,22.20
2018-12-15T04:32:46.501Z,23.47
2018-12-15T04:34:49.171Z,22.10
2018-12-15T04:36:52.071Z,22.97
2018-12-15T04:38:54.591Z,22.27
2018-12-15T04:40:57.181Z,21.73
2018-12-15T04:42:59.705Z,22.27
2018-12-15T04:45:02.218Z,23.07
2018-12-15T04:47:04.823Z,20.90
2018-12-15T04:49:07.375Z,21.57
2018-12-15T04:51:09.924Z,22.17
2018-12-15T04:53:12.551Z,21.73
2018-12-15T04:55:15.428Z,21.40
2018-12-15T04:57:18.062Z,22.90
2018-12-15T04:59:20.602Z,21.87
2018-12-15T05:01:23.200Z,22.57
2018-12-15T05:03:25.722Z,22.00
2018-12-15T05:05:28.258Z,23.33
2018-12-15T05:07:30.849Z,22.87
2018-12-15T05:09:33.470Z,21.80
2018-12-15T05:11:36.060Z,23.43
2018-12-15T05:13:38.618Z,22.10
2018-12-15T05:15:41.164Z,22.53
2018-12-15T05:17:43.737Z,21.27
2018-12-15T05:19:46.377Z,22.73
2018-12-15T05:21:48.886Z,22.23
2018-12-15T05:23:51.586Z,22.33
2018-12-15T05:25:54.283Z,22.97
2018-12-15T05:27:56.788Z,22.13
2018-12-15T05:29:59.339Z,21.90
2018-12-15T05:32:01.974Z,21.23
2018-12-15T05:34:04.584Z,23.20
2018-12-15T05:36:07.188Z,22.13
2018-12-15T05:38:09.701Z,22.63
2018-12-15T05:40:12.297Z,20.80
2018-12-15T05:42:14.814Z,23.30
2018-12-15T05:44:17.395Z,21.50
2018-12-15T05:46:19.906Z,22.37
2018-12-15T05:48:25.295Z,21.50
2018-12-15T05:50:27.143Z,24.33
2018-12-15T05:52:29.658Z,23.07
2018-12-15T05:54:32.257Z,21.73
2018-12-15T05:56:34.722Z,22.70
2018-12-15T05:58:37.252Z,29.83
2018-12-15T06:00:39.862Z,26.37
2018-12-15T06:02:42.573Z,34.33
2018-12-15T06:04:45.134Z,25.70
2018-12-15T06:06:47.655Z,24.47
2018-12-15T06:08:50.311Z,22.97
2018-12-15T06:10:52.968Z,23.60
2018-12-15T06:12:55.514Z,25.60
2018-12-15T06:14:58.257Z,22.10
2018-12-15T06:17:00.842Z,24.07
2018-12-15T06:19:03.434Z,23.47
2018-12-15T06:21:06.169Z,22.93
2018-12-15T06:23:08.832Z,25.10
2018-12-15T06:25:11.360Z,22.17
2018-12-15T06:27:14.165Z,19.70
2018-12-15T06:29:16.672Z,18.83
2018-12-15T06:31:19.197Z,19.47
2018-12-15T06:33:21.756Z,20.93
2018-12-15T06:35:24.415Z,23.00
2018-12-15T06:37:27.041Z,22.47
2018-12-15T06:39:29.587Z,21.23
2018-12-15T06:41:32.126Z,21.10
2018-12-15T06:43:34.935Z,22.50
2018-12-15T06:45:37.578Z,21.90
2018-12-15T06:47:40.113Z,22.33
2018-12-15T06:49:42.747Z,21.33
2018-12-15T06:51:45.334Z,21.93
2018-12-15T06:53:47.913Z,24.43
2018-12-15T06:55:50.500Z,30.90
2018-12-15T06:57:53.042Z,21.50
2018-12-15T06:59:55.597Z,19.83
2018-12-15T07:01:58.233Z,20.90
2018-12-15T07:04:00.758Z,20.60
2018-12-15T07:06:03.339Z,20.67
2018-12-15T07:08:06.033Z,20.80
2018-12-15T07:10:08.680Z,19.67
2018-12-15T07:12:11.235Z,20.57
2018-12-15T07:14:13.865Z,22.80
2018-12-15T07:16:16.391Z,23.27
2018-12-15T07:18:19.017Z,23.33
2018-12-15T07:20:21.533Z,23.27
2018-12-15T07:22:24.210Z,24.17
2018-12-15T07:24:27.027Z,22.43
2018-12-15T07:26:29.715Z,23.17
2018-12-15T07:28:32.274Z,22.07
2018-12-15T07:30:35.074Z,23.40
2018-12-15T07:32:37.589Z,24.20
2018-12-15T07:34:40.250Z,24.73
2018-12-15T07:36:42.872Z,23.67
2018-12-15T07:38:45.427Z,24.37
2018-12-15T07:40:47.970Z,25.60
2018-12-15T07:42:50.644Z,24.33
2018-12-15T07:44:53.177Z,24.00
2018-12-15T07:46:55.682Z,24.53
2018-12-15T07:48:58.289Z,24.00
2018-12-15T07:51:00.880Z,23.97
2018-12-15T07:53:03.433Z,24.40
2018-12-15T07:55:06.117Z,26.17
2018-12-15T07:57:08.632Z,23.90
2018-12-15T07:59:11.167Z,24.03
2018-12-15T08:01:13.830Z,23.53
2018-12-15T08:03:16.408Z,25.57
2018-12-15T08:05:19.175Z,23.40
2018-12-15T08:07:21.942Z,24.63
2018-12-15T08:09:24.534Z,23.53
2018-12-15T08:11:32.885Z,24.07
2018-12-15T08:13:35.443Z,23.90
2018-12-15T08:15:38.044Z,24.40
2018-12-15T08:17:40.638Z,23.77
2018-12-15T08:19:43.263Z,22.77
2018-12-15T08:21:45.829Z,22.33
2018-12-15T08:23:48.486Z,23.07
2018-12-15T08:25:51.029Z,23.53
2018-12-15T08:27:53.550Z,22.40
2018-12-15T08:29:56.145Z,22.90
2018-12-15T08:31:59.114Z,23.83
2018-12-15T08:34:01.617Z,22.73
2018-12-15T08:36:04.458Z,23.13
2018-12-15T08:38:07.139Z,24.13
2018-12-15T08:40:09.818Z,25.10
2018-12-15T08:42:12.361Z,26.00
2018-12-15T08:44:14.933Z,24.63
2018-12-15T08:46:17.771Z,25.70
2018-12-15T08:48:20.288Z,24.90
2018-12-15T08:50:22.852Z,30.40
2018-12-15T08:52:25.499Z,30.70
2018-12-15T08:54:28.109Z,26.73
2018-12-15T08:56:30.801Z,26.87
2018-12-15T08:58:33.443Z,26.50
2018-12-15T09:00:35.947Z,24.33
2018-12-15T09:02:38.595Z,23.33
2018-12-15T09:04:41.124Z,23.27
2018-12-15T09:06:43.666Z,23.63
2018-12-15T09:08:46.182Z,26.07
2018-12-15T09:10:48.793Z,24.27
2018-12-15T09:12:51.598Z,23.97
2018-12-15T09:14:54.311Z,29.73
2018-12-15T09:16:56.875Z,24.10
2018-12-15T09:18:59.534Z,23.57
2018-12-15T09:21:02.141Z,23.20
2018-12-15T09:23:04.685Z,22.23
2018-12-15T09:25:07.297Z,23.53
2018-12-15T09:27:09.822Z,22.93
2018-12-15T09:29:12.406Z,24.03
2018-12-15T09:31:15.032Z,24.07
2018-12-15T09:33:17.582Z,22.87
2018-12-15T09:35:20.243Z,22.90
2018-12-15T09:37:22.745Z,22.60
2018-12-15T09:39:25.419Z,25.13
2018-12-15T09:41:28.073Z,26.13
2018-12-15T09:43:31.118Z,25.33
2018-12-15T09:45:34.001Z,25.23
2018-12-15T09:47:36.545Z,28.60
2018-12-15T09:49:39.188Z,23.90
2018-12-15T09:51:41.781Z,25.17
2018-12-15T09:53:44.394Z,23.67
2018-12-15T09:55:47.079Z,23.80
2018-12-15T09:57:49.607Z,22.67
2018-12-15T09:59:52.206Z,21.87
2018-12-15T10:01:54.717Z,22.93
2018-12-15T10:03:57.338Z,24.13
2018-12-15T10:06:00.149Z,22.87
2018-12-15T10:08:03.631Z,22.67
2018-12-15T10:10:06.742Z,26.10
2018-12-15T10:12:09.424Z,22.73
2018-12-15T10:14:11.953Z,22.40
2018-12-15T10:16:14.571Z,21.63
2018-12-15T10:18:17.080Z,22.37
2018-12-15T10:20:19.680Z,21.47
2018-12-15T10:27:22.753Z,21.03
2018-12-15T10:29:38.531Z,21.97
2018-12-15T10:31:47.150Z,21.10
2018-12-15T10:33:49.976Z,26.20
2018-12-15T10:35:53.029Z,26.60
2018-12-15T10:37:55.637Z,25.30
2018-12-15T10:39:58.309Z,22.87
2018-12-15T10:42:00.833Z,22.43
2018-12-15T10:44:03.537Z,22.20
2018-12-15T10:46:06.073Z,22.73
2018-12-15T10:48:08.631Z,23.60
2018-12-15T10:50:11.495Z,24.67
2018-12-15T10:52:14.138Z,24.07
2018-12-15T10:54:16.734Z,21.60
2018-12-15T10:56:19.349Z,21.03
2018-12-15T10:58:22.042Z,22.87
2018-12-15T11:00:26.563Z,22.43
2018-12-15T11:02:29.217Z,24.03
2018-12-15T11:04:32.793Z,22.30
2018-12-15T11:06:35.664Z,23.47
2018-12-15T11:08:38.191Z,22.87
2018-12-15T11:10:41.018Z,21.73
2018-12-15T11:12:43.721Z,22.60
2018-12-15T11:14:46.441Z,22.30
2018-12-15T11:16:49.218Z,22.67
2018-12-15T11:18:51.752Z,21.10
2018-12-15T11:20:54.305Z,21.90
2018-12-15T11:22:57.034Z,23.00
2018-12-15T11:24:59.546Z,22.83
2018-12-15T11:27:02.062Z,24.07
2018-12-15T11:29:04.654Z,22.83
2018-12-15T11:31:07.295Z,23.07
2018-12-15T11:33:09.923Z,22.50
2018-12-15T11:35:12.714Z,23.43
2018-12-15T11:37:15.240Z,23.40
2018-12-15T11:39:19.522Z,22.93
2018-12-15T11:41:22.081Z,25.10
2018-12-15T11:43:24.666Z,22.87
2018-12-15T11:45:27.200Z,23.27
2018-12-15T11:47:29.958Z,23.20
2018-12-15T11:49:32.479Z,23.50
2018-12-15T11:51:35.004Z,21.60
2018-12-15T11:53:37.577Z,22.07
2018-12-15T11:55:40.291Z,28.53
2018-12-15T11:57:42.815Z,42.57
2018-12-15T11:59:45.988Z,21.87
2018-12-15T12:01:48.602Z,21.57
2018-12-15T12:03:51.266Z,21.47
2018-12-15T12:05:53.785Z,28.20
2018-12-15T12:07:56.314Z,21.53
2018-12-15T12:09:58.871Z,21.93
2018-12-15T12:12:01.406Z,35.03
2018-12-15T12:14:04.019Z,32.53
2018-12-15T12:16:06.524Z,32.10
2018-12-15T12:18:09.075Z,22.83
2018-12-15T12:20:11.702Z,55.77
2018-12-15T12:22:14.322Z,47.67
2018-12-15T12:24:16.938Z,91.97
2018-12-15T12:26:19.528Z,59.87
2018-12-15T12:28:22.193Z,110.50
2018-12-15T12:30:24.741Z,33.33
2018-12-15T12:32:27.280Z,22.60
2018-12-15T12:34:29.877Z,22.00
2018-12-15T12:36:32.784Z,21.33
2018-12-15T12:38:35.286Z,20.60
2018-12-15T12:40:37.886Z,20.60
2018-12-15T12:42:40.423Z,19.90
2018-12-15T12:44:42.926Z,21.33
2018-12-15T12:46:45.518Z,20.33
2018-12-15T12:48:48.109Z,20.87
2018-12-15T12:50:50.856Z,21.00
2018-12-15T12:52:53.411Z,22.00
2018-12-15T12:54:56.048Z,19.17
2018-12-15T12:56:58.770Z,23.50
2018-12-15T12:59:01.313Z,20.60
2018-12-15T13:01:03.850Z,20.37
2018-12-15T13:03:06.759Z,22.90
2018-12-15T13:05:09.495Z,21.70
2018-12-15T13:07:12.156Z,20.90
2018-12-15T13:09:14.994Z,21.53
2018-12-15T13:11:17.699Z,21.07
2018-12-15T13:13:20.431Z,20.93
2018-12-15T13:15:23.140Z,19.97
2018-12-15T13:17:27.317Z,20.40
2018-12-15T13:19:30.219Z,20.87
2018-12-15T13:21:32.880Z,21.67
2018-12-15T13:23:35.667Z,19.40
2018-12-15T13:25:38.846Z,20.27
2018-12-15T13:27:41.599Z,21.40
2018-12-15T13:29:44.664Z,21.67
2018-12-15T13:31:47.231Z,21.90
2018-12-15T13:33:49.839Z,21.37
2018-12-15T13:35:52.589Z,22.13
2018-12-15T13:37:55.200Z,24.20
2018-12-15T13:40:00.000Z,20.97
2018-12-15T13:42:02.529Z,23.50
2018-12-15T13:46:19.141Z,21.33
2018-12-15T13:48:21.758Z,21.37
2018-12-15T13:50:24.329Z,20.17
2018-12-15T13:52:26.865Z,19.73
2018-12-15T13:54:29.449Z,20.77
2018-12-15T13:56:32.506Z,21.70
2018-12-15T13:58:35.105Z,21.70
2018-12-15T14:00:37.781Z,25.17
2018-12-15T14:02:40.309Z,27.00
2018-12-15T14:04:42.992Z,23.37
2018-12-15T14:06:45.516Z,29.80
2018-12-15T14:08:48.041Z,21.47
2018-12-15T14:10:50.685Z,19.33
2018-12-15T14:12:53.250Z,20.47
2018-12-15T14:14:55.838Z,20.50
2018-12-15T14:16:58.483Z,28.73
2018-12-15T14:19:01.040Z,36.20
2018-12-15T14:21:03.586Z,22.77
2018-12-15T14:23:06.142Z,25.37
2018-12-15T14:25:08.672Z,22.87
2018-12-15T14:27:11.265Z,24.10
2018-12-15T14:29:13.791Z,31.13
2018-12-15T14:31:16.387Z,19.30
2018-12-15T14:33:18.914Z,20.27
2018-12-15T14:35:21.517Z,19.83
2018-12-15T14:37:24.174Z,18.87
2018-12-15T14:39:26.693Z,21.83
2018-12-15T14:41:29.250Z,20.93
2018-12-15T14:43:31.810Z,20.47
2018-12-15T14:45:34.522Z,18.67
2018-12-15T14:47:37.116Z,19.60
2018-12-15T14:49:39.895Z,18.37
2018-12-15T14:51:42.437Z,18.53
2018-12-15T14:53:45.113Z,18.00
2018-12-15T14:55:47.835Z,18.30
2018-12-15T14:57:50.393Z,16.23
2018-12-15T14:59:52.997Z,16.83
2018-12-15T15:01:55.777Z,15.77
2018-12-15T15:03:58.610Z,18.77
2018-12-15T15:06:01.160Z,18.40
2018-12-15T15:08:03.756Z,15.97
2018-12-15T15:10:06.749Z,16.23
2018-12-15T15:12:09.308Z,17.70
2018-12-15T15:14:11.846Z,17.07
2018-12-15T15:16:14.443Z,15.70
2018-12-15T15:18:17.034Z,15.17
2018-12-15T15:20:21.213Z,15.23
2018-12-15T15:22:23.973Z,37.33
2018-12-15T15:24:26.575Z,34.63
2018-12-15T15:26:29.193Z,27.47
2018-12-15T15:28:31.733Z,16.60
2018-12-15T15:30:34.271Z,16.17
2018-12-15T15:32:36.831Z,15.83
2018-12-15T15:34:39.443Z,16.47
2018-12-15T15:36:42.184Z,16.40
2018-12-15T15:38:44.805Z,15.67
2018-12-15T15:40:47.418Z,16.27
2018-12-15T15:42:49.961Z,15.40
2018-12-15T15:44:52.729Z,16.10
2018-12-15T15:46:55.293Z,15.03
2018-12-15T15:48:57.946Z,15.53
2018-12-15T15:51:00.676Z,15.23
2018-12-15T15:53:03.303Z,15.20
2018-12-15T15:55:06.028Z,15.23
2018-12-15T15:57:08.586Z,16.20
2018-12-15T15:59:11.223Z,15.47
2018-12-15T16:01:13.734Z,17.43
2018-12-15T16:03:16.306Z,17.13
2018-12-15T16:05:18.848Z,15.20
2018-12-15T16:07:21.783Z,14.60
2018-12-15T16:09:24.320Z,13.47
2018-12-15T16:11:29.878Z,14.97
2018-12-15T16:13:32.505Z,15.30
2018-12-15T16:15:35.299Z,14.80
2018-12-15T16:17:37.979Z,14.07
2018-12-15T16:19:40.559Z,12.83
2018-12-15T16:21:43.280Z,13.07
2018-12-15T16:23:45.894Z,12.97
2018-12-15T16:25:48.467Z,15.27
2018-12-15T16:27:50.981Z,12.73
2018-12-15T16:29:53.539Z,12.77
2018-12-15T16:31:56.078Z,11.10
2018-12-15T16:33:58.779Z,12.67
2018-12-15T16:36:01.447Z,12.37
2018-12-15T16:38:04.057Z,11.57
2018-12-15T16:40:07.434Z,11.53
2018-12-15T16:42:10.209Z,12.00
2018-12-15T16:44:12.728Z,13.00
2018-12-15T16:46:15.321Z,14.07
2018-12-15T16:48:17.876Z,17.63
2018-12-15T16:50:20.444Z,22.10
2018-12-15T16:52:23.849Z,18.70
2018-12-15T16:54:26.406Z,17.03
2018-12-15T16:56:28.945Z,17.13
2018-12-15T16:58:31.486Z,14.47
2018-12-15T17:00:34.082Z,13.87
2018-12-15T17:02:36.601Z,13.80
2018-12-15T17:04:39.205Z,14.33
2018-12-15T17:06:41.867Z,13.93
2018-12-15T17:08:44.490Z,12.97
2018-12-15T17:10:47.285Z,13.33
2018-12-15T17:12:49.857Z,13.93
2018-12-15T17:14:52.470Z,12.43
2018-12-15T17:16:55.105Z,12.83
2018-12-15T17:18:57.613Z,13.17
2018-12-15T17:21:00.155Z,14.53
2018-12-15T17:23:02.741Z,13.83
2018-12-15T17:25:06.445Z,16.70
2018-12-15T17:27:09.073Z,16.03
2018-12-15T17:29:11.670Z,13.50
2018-12-15T17:31:14.281Z,13.80
2018-12-15T17:33:17.199Z,14.37
2018-12-15T17:35:19.712Z,14.47
2018-12-15T17:37:22.304Z,15.77
2018-12-15T17:39:25.093Z,15.80
2018-12-15T17:41:27.816Z,16.53
2018-12-15T17:43:30.382Z,16.30
2018-12-15T17:45:32.950Z,27.00
2018-12-15T17:47:35.546Z,16.87
2018-12-15T17:49:38.064Z,23.93
2018-12-15T17:51:40.819Z,24.03
2018-12-15T17:53:43.365Z,18.40
2018-12-15T17:55:45.930Z,20.17
2018-12-15T17:57:48.527Z,20.00
2018-12-15T17:59:51.109Z,15.83
2018-12-15T18:01:53.763Z,17.80
2018-12-15T18:03:56.299Z,15.67
2018-12-15T18:05:59.041Z,13.50
2018-12-15T18:08:01.635Z,13.53
2018-12-15T18:10:06.283Z,15.43
2018-12-15T18:12:08.811Z,14.20
2018-12-15T18:14:11.359Z,12.90
2018-12-15T18:16:14.049Z,13.70
2018-12-15T18:18:16.683Z,13.67
2018-12-15T18:20:19.243Z,14.50
2018-12-15T18:22:21.784Z,14.87
2018-12-15T18:24:24.319Z,13.30
2018-12-15T18:26:26.851Z,14.17
2018-12-15T18:28:29.568Z,13.87
2018-12-15T18:30:32.220Z,14.27
2018-12-15T18:32:34.842Z,14.87
2018-12-15T18:34:37.486Z,14.47
2018-12-15T18:36:40.058Z,14.70
2018-12-15T18:38:42.622Z,13.50
2018-12-15T18:40:45.364Z,14.80
2018-12-15T18:42:47.975Z,13.83
2018-12-15T18:44:50.699Z,14.03
2018-12-15T18:46:53.316Z,14.93
2018-12-15T18:48:55.956Z,15.10
2018-12-15T18:50:58.604Z,15.17
2018-12-15T18:53:01.157Z,16.63
2018-12-15T18:55:03.928Z,14.87
2018-12-15T18:57:06.508Z,16.57
2018-12-15T18:59:09.370Z,16.50
2018-12-15T19:01:12.080Z,16.60
2018-12-15T19:03:14.659Z,17.40
2018-12-15T19:05:17.225Z,19.57
2018-12-15T19:07:19.747Z,20.17
2018-12-15T19:09:22.290Z,22.43
2018-12-15T19:11:24.914Z,21.77
2018-12-15T19:13:27.436Z,18.40
2018-12-15T19:15:30.197Z,17.00
2018-12-15T19:17:32.856Z,19.23
2018-12-15T19:19:35.380Z,18.93
2018-12-15T19:21:38.165Z,18.63
2018-12-15T19:23:40.784Z,17.50
2018-12-15T19:25:43.477Z,17.10
2018-12-15T19:27:45.984Z,17.33
2018-12-15T19:29:48.525Z,16.50
2018-12-15T19:31:51.163Z,15.53
2018-12-15T19:33:53.773Z,16.97
2018-12-15T19:35:56.411Z,18.07
2018-12-15T19:37:59.163Z,17.47
2018-12-15T19:40:01.693Z,18.10
2018-12-15T19:42:04.455Z,17.53
2018-12-15T19:44:07.073Z,18.30
2018-12-15T19:46:10.095Z,17.67
2018-12-15T19:48:12.644Z,17.13
2018-12-15T19:50:15.234Z,16.27
2018-12-15T19:52:17.792Z,21.90
2018-12-15T19:54:20.348Z,20.13
2018-12-15T19:56:22.878Z,17.50
2018-12-15T19:58:25.428Z,17.20
2018-12-15T20:00:28.098Z,16.77
2018-12-15T20:02:30.708Z,16.53
2018-12-15T20:04:33.437Z,16.20
2018-12-15T20:06:36.023Z,16.90
2018-12-15T20:08:38.671Z,16.40
2018-12-15T20:10:41.335Z,16.57
2018-12-15T20:12:43.993Z,16.53
2018-12-15T20:14:46.602Z,18.60
2018-12-15T20:16:49.305Z,17.57
2018-12-15T20:18:52.192Z,16.80
2018-12-15T20:20:54.737Z,19.60
2018-12-15T20:22:57.300Z,18.23
2018-12-15T20:24:59.900Z,16.57
2018-12-15T20:27:02.574Z,17.23
2018-12-15T20:29:05.116Z,18.13
2018-12-15T20:31:07.687Z,18.13
2018-12-15T20:33:10.238Z,18.33
2018-12-15T20:35:12.804Z,16.87
2018-12-15T20:37:15.420Z,21.47
2018-12-15T20:39:18.293Z,20.13
2018-12-15T20:41:20.831Z,22.07
2018-12-15T20:43:23.414Z,21.70
2018-12-15T20:45:26.095Z,22.73
2018-12-15T20:47:28.728Z,18.93
2018-12-15T20:49:31.417Z,18.50
2018-12-15T20:51:34.079Z,16.83
2018-12-15T20:53:36.682Z,15.87
2018-12-15T20:55:39.354Z,16.60
2018-12-15T20:57:42.043Z,17.07
2018-12-15T20:59:44.741Z,16.03
2018-12-15T21:01:47.388Z,15.60
2018-12-15T21:03:50.065Z,17.50
2018-12-15T21:05:52.782Z,17.27
2018-12-15T21:07:55.368Z,18.23
2018-12-15T21:09:58.057Z,18.60
2018-12-15T21:12:00.598Z,16.90
2018-12-15T21:14:03.191Z,16.30
2018-12-15T21:16:05.755Z,19.00
2018-12-15T21:18:08.315Z,17.13
2018-12-15T21:20:11.102Z,17.57
2018-12-15T21:22:13.756Z,18.23
2018-12-15T21:24:16.412Z,17.70
2018-12-15T21:26:18.997Z,19.33
2018-12-15T21:28:21.619Z,18.57
2018-12-15T21:30:24.288Z,22.20
2018-12-15T21:32:26.881Z,19.67
2018-12-15T21:34:29.434Z,17.87
2018-12-15T21:36:32.344Z,16.73
2018-12-15T21:38:35.116Z,22.20
2018-12-15T21:40:37.666Z,18.47
2018-12-15T21:42:40.306Z,17.63
2018-12-15T21:44:43.149Z,18.20
2018-12-15T21:46:45.734Z,17.87
2018-12-15T21:48:48.273Z,40.67
2018-12-15T21:50:50.797Z,19.93
2018-12-15T21:52:53.511Z,16.90
2018-12-15T21:54:56.073Z,16.40
2018-12-15T21:56:58.617Z,17.00
2018-12-15T21:59:01.182Z,18.17
2018-12-15T22:01:03.891Z,17.37
2018-12-15T22:03:06.537Z,18.97
2018-12-15T22:05:09.178Z,17.37
2018-12-15T22:07:11.787Z,18.63
2018-12-15T22:09:14.314Z,18.83
2018-12-15T22:11:16.890Z,18.63
2018-12-15T22:13:19.466Z,17.60
2018-12-15T22:15:22.006Z,19.47
2018-12-15T22:17:24.607Z,17.93
2018-12-15T22:19:27.177Z,17.33
2018-12-15T22:21:29.836Z,18.03
2018-12-15T22:23:32.413Z,16.60
2018-12-15T22:25:35.104Z,18.63
2018-12-15T22:27:37.764Z,18.50
2018-12-15T22:29:40.463Z,18.70
2018-12-15T22:31:43.020Z,19.03
2018-12-15T22:33:45.554Z,17.87
2018-12-15T22:35:48.142Z,19.33
2018-12-15T22:37:50.744Z,18.93
2018-12-15T22:39:53.391Z,25.57
2018-12-15T22:41:55.954Z,21.57
2018-12-15T22:43:58.626Z,26.13
2018-12-15T22:46:01.303Z,26.00
2018-12-15T22:48:04.110Z,26.03
2018-12-15T22:50:06.807Z,21.10
2018-12-15T22:52:09.939Z,20.47
2018-12-15T22:54:12.742Z,19.80
2018-12-15T22:56:15.353Z,20.93
2018-12-15T22:58:18.040Z,19.60
2018-12-15T23:00:20.962Z,19.60
2018-12-15T23:02:23.481Z,30.37
2018-12-15T23:04:26.094Z,25.20
2018-12-15T23:06:28.641Z,20.23
2018-12-15T23:08:31.229Z,20.40
2018-12-15T23:10:33.925Z,20.73
2018-12-15T23:12:36.548Z,20.13
2018-12-15T23:14:39.126Z,21.20
2018-12-15T23:16:41.704Z,20.70
2018-12-15T23:18:44.245Z,22.07
2018-12-15T23:20:46.943Z,21.37
2018-12-15T23:22:49.557Z,20.40
2018-12-15T23:24:52.149Z,22.37
2018-12-15T23:26:54.945Z,21.37
2018-12-15T23:28:57.586Z,21.90
2018-12-15T23:31:00.164Z,20.77
2018-12-15T23:33:02.786Z,21.93
2018-12-15T23:35:05.937Z,22.13
2018-12-15T23:37:08.552Z,21.17
2018-12-15T23:39:11.113Z,20.27
2018-12-15T23:41:13.861Z,20.97
2018-12-15T23:43:16.553Z,20.83
2018-12-15T23:45:19.143Z,21.10
2018-12-15T23:47:21.821Z,20.43
2018-12-15T23:49:24.446Z,20.67
2018-12-15T23:51:27.086Z,18.60
2018-12-15T23:53:29.646Z,19.33
2018-12-15T23:55:32.172Z,18.13
2018-12-15T23:57:34.746Z,18.70
2018-12-15T23:59:37.315Z,20.97
